Time;durP1;ratioP1;P1;durP2;ratioP2;P2;SDS_P1;SDS_P2;PMS_P1;PMS_P2;Temp;Humidity;BMP_temperature;BMP_pressure;BME280_temperature;BME280_humidity;BME280_pressure;Samples;Min_cycle;Max_cycle;Signal;HPM_P1;HPM_P2
2022/11/05 00:09:28;;;;;;;7.68;4.78;;;7.90;99.90;;;;;;5033967;28;20171;-66
2022/11/05 00:11:13;;;;;;;9.65;3.80;;;7.70;99.90;;;;;;5033182;28;20041;-66
2022/11/05 00:19:08;;;;;;;6.20;3.42;;;7.60;99.90;;;;;;5033087;28;20501;-65
2022/11/05 00:27:05;;;;;;;8.98;3.72;;;7.70;99.90;;;;;;5032953;28;20114;-66
2022/11/05 00:29:31;;;;;;;6.35;4.05;;;7.70;99.90;;;;;;5032862;28;20042;-66
2022/11/05 00:31:56;;;;;;;8.20;3.92;;;7.70;99.90;;;;;;5032554;28;20038;-65
2022/11/05 00:34:22;;;;;;;5.78;3.40;;;7.70;99.90;;;;;;5032363;28;20080;-65
2022/11/05 00:36:47;;;;;;;5.30;3.92;;;7.70;99.90;;;;;;5032526;28;20080;-65
2022/11/05 00:39:13;;;;;;;8.65;3.80;;;7.70;99.90;;;;;;5031515;28;20042;-66
2022/11/05 00:41:38;;;;;;;9.00;3.65;;;7.70;99.90;;;;;;5048159;28;20045;-66
2022/11/05 00:46:48;;;;;;;7.70;3.20;;;7.90;99.90;;;;;;5052303;28;20417;-66
2022/11/05 00:49:29;;;;;;;8.02;3.42;;;7.90;99.90;;;;;;5052554;28;20048;-65
2022/11/05 00:54:39;;;;;;;6.53;2.83;;;7.90;99.90;;;;;;5052393;28;20041;-65
2022/11/05 00:57:04;;;;;;;10.55;3.30;;;8.00;99.90;;;;;;5052526;28;20045;-65
2022/11/05 00:59:30;;;;;;;8.60;2.75;;;8.10;99.90;;;;;;5052026;28;20041;-66
2022/11/05 01:01:55;;;;;;;6.22;2.88;;;8.10;99.90;;;;;;5052265;28;20412;-66
2022/11/05 01:04:21;;;;;;;4.07;3.50;;;8.10;99.90;;;;;;5051830;28;20045;-65
2022/11/05 01:06:46;;;;;;;4.28;2.90;;;8.10;99.90;;;;;;5051451;28;20409;-66
2022/11/05 01:09:12;;;;;;;9.35;2.90;;;8.10;99.90;;;;;;5051984;28;20571;-66
2022/11/05 01:11:39;;;;;;;2.95;2.55;;;8.10;99.90;;;;;;5051728;28;20051;-66
2022/11/05 01:14:14;;;;;;;4.40;2.60;;;8.10;99.90;;;;;;5050373;28;20045;-66
2022/11/05 01:16:40;;;;;;;2.97;2.33;;;8.00;99.90;;;;;;5052262;28;20432;-66
2022/11/05 01:19:08;;;;;;;5.53;2.35;;;8.00;99.90;;;;;;5051784;28;20036;-65
2022/11/05 01:21:34;;;;;;;6.68;2.72;;;8.00;99.90;;;;;;5051760;28;20033;-66
2022/11/05 01:24:00;;;;;;;7.82;2.70;;;8.00;99.90;;;;;;5051523;28;20052;-65
2022/11/05 01:26:26;;;;;;;8.65;2.45;;;8.00;99.90;;;;;;5051758;28;20124;-66
2022/11/05 01:28:59;;;;;;;3.22;2.67;;;7.90;99.90;;;;;;5051801;28;20120;-65
2022/11/05 01:31:24;;;;;;;6.72;2.40;;;8.00;99.90;;;;;;5051409;28;20721;-66
2022/11/05 01:33:50;;;;;;;7.18;2.58;;;7.90;99.90;;;;;;5051304;28;20053;-65
2022/11/05 01:36:16;;;;;;;2.85;2.42;;;7.90;99.90;;;;;;5051420;28;20429;-66
2022/11/05 01:38:41;;;;;;;4.43;2.55;;;7.90;99.90;;;;;;5051354;28;20509;-66
2022/11/05 01:41:07;;;;;;;7.28;2.28;;;7.90;99.90;;;;;;5050270;28;20087;-65
2022/11/05 01:43:51;;;;;;;2.80;2.03;;;7.80;99.90;;;;;;5051689;28;20044;-65
2022/11/05 01:46:27;;;;;;;8.07;2.22;;;7.90;99.90;;;;;;5051750;28;20405;-65
2022/11/05 01:48:55;;;;;;;7.30;2.38;;;7.80;99.90;;;;;;5051451;28;20132;-65
2022/11/05 01:51:24;;;;;;;5.38;2.50;;;7.80;99.90;;;;;;5051399;28;20124;-66
2022/11/05 01:54:03;;;;;;;7.35;2.40;;;7.90;99.90;;;;;;5050908;28;20124;-65
2022/11/05 01:56:33;;;;;;;3.72;2.63;;;7.80;99.90;;;;;;5051468;28;20059;-66
2022/11/05 01:59:05;;;;;;;2.47;2.05;;;7.80;99.90;;;;;;5050996;28;20128;-65
2022/11/05 02:01:31;;;;;;;6.97;2.95;;;7.90;99.90;;;;;;5051143;28;20096;-65
2022/11/05 02:04:02;;;;;;;6.60;2.65;;;7.90;99.90;;;;;;5050573;28;20554;-66
2022/11/05 02:06:31;;;;;;;6.70;2.53;;;7.80;99.90;;;;;;5051290;28;20120;-66
2022/11/05 02:09:02;;;;;;;6.78;2.83;;;7.80;99.90;;;;;;5051013;28;20063;-66
2022/11/05 02:11:28;;;;;;;8.02;3.20;;;7.90;99.90;;;;;;5050803;28;20107;-66
2022/11/05 02:13:53;;;;;;;4.25;3.22;;;7.90;99.90;;;;;;5049552;28;20465;-65
2022/11/05 02:16:36;;;;;;;6.45;2.92;;;7.90;99.90;;;;;;5050997;28;20047;-66
2022/11/05 02:19:20;;;;;;;;;;;8.00;99.90;;;;;;5050437;28;20079;-66
2022/11/05 02:22:06;;;;;;;4.78;2.80;;;7.90;99.90;;;;;;5050949;28;19924;-66
2022/11/05 02:24:50;;;;;;;9.23;3.22;;;7.90;99.90;;;;;;5050765;28;20428;-65
2022/11/05 02:27:49;;;;;;;3.70;3.20;;;7.90;99.90;;;;;;5050849;28;20446;-66
2022/11/05 02:30:32;;;;;;;6.70;3.33;;;7.90;99.90;;;;;;5050703;28;20040;-66
2022/11/05 02:33:00;;;;;;;;;;;7.90;99.90;;;;;;5049630;28;20043;-65
2022/11/05 02:35:48;;;;;;;6.18;2.97;;;7.90;99.90;;;;;;5050651;28;19916;-66
2022/11/05 02:38:26;;;;;;;4.88;3.50;;;8.00;99.90;;;;;;5050838;28;20375;-66
2022/11/05 02:41:16;;;;;;;7.43;3.28;;;8.00;99.90;;;;;;5050793;28;20052;-66
2022/11/05 02:43:59;;;;;;;5.22;3.40;;;8.00;99.90;;;;;;5050261;28;20041;-66
2022/11/05 02:46:36;;;;;;;4.75;3.30;;;8.00;99.90;;;;;;5050811;28;20064;-65
2022/11/05 02:49:27;;;;;;;8.30;3.70;;;8.00;99.90;;;;;;5050513;28;20037;-66
2022/11/05 02:51:58;;;;;;;6.95;3.50;;;8.00;99.90;;;;;;5050410;28;20063;-65
2022/11/05 02:54:34;;;;;;;6.13;3.92;;;7.90;99.90;;;;;;5050336;28;20032;-66
2022/11/05 02:57:02;;;;;;;6.00;3.15;;;7.90;99.90;;;;;;5050760;28;20049;-66
2022/11/05 02:59:28;;;;;;;8.80;3.50;;;7.90;99.90;;;;;;5050190;28;20037;-65
2022/11/05 03:01:55;;;;;;;5.15;3.20;;;7.90;99.90;;;;;;5050628;28;20041;-65
2022/11/05 03:04:22;;;;;;;5.65;3.10;;;7.80;99.90;;;;;;5050115;28;20045;-66
2022/11/05 03:07:13;;;;;;;6.47;3.13;;;7.80;99.90;;;;;;5050553;28;20037;-65
2022/11/05 03:10:03;;;;;;;5.93;2.75;;;7.80;99.90;;;;;;5048953;28;20620;-65
2022/11/05 03:12:58;;;;;;;5.85;3.03;;;7.70;99.90;;;;;;5050232;28;20094;-66
2022/11/05 03:15:38;;;;;;;3.08;2.58;;;7.70;99.90;;;;;;5048516;28;20439;-66
2022/11/05 03:18:10;;;;;;;7.40;3.78;;;7.70;99.90;;;;;;5049377;28;20488;-66
2022/11/05 03:20:57;;;;;;;5.23;2.93;;;7.70;99.90;;;;;;5050393;28;20037;-66
2022/11/05 03:23:53;;;;;;;5.65;2.65;;;7.70;99.90;;;;;;5049308;28;20078;-66
2022/11/05 03:26:27;;;;;;;7.68;3.10;;;7.60;99.90;;;;;;5050362;28;20082;-66
2022/11/05 03:28:58;;;;;;;3.00;2.63;;;7.60;99.90;;;;;;5050345;28;20590;-65
2022/11/05 03:31:26;;;;;;;4.32;2.28;;;7.60;99.90;;;;;;5052189;28;20037;-65
2022/11/05 03:33:54;;;;;;;3.65;3.08;;;7.50;99.90;;;;;;5053806;28;20041;-66
2022/11/05 03:36:28;;;;;;;6.57;2.33;;;7.60;99.90;;;;;;5054005;28;20391;-65
2022/11/05 03:38:56;;;;;;;4.55;2.65;;;7.50;99.90;;;;;;5053793;28;20111;-65
2022/11/05 03:41:24;;;;;;;6.07;3.13;;;7.50;99.90;;;;;;5053677;28;20037;-65
2022/11/05 03:43:54;;;;;;;3.65;2.65;;;7.60;99.90;;;;;;5053152;28;20466;-65
2022/11/05 03:46:26;;;;;;;6.32;2.90;;;7.60;99.90;;;;;;5053791;28;20048;-66
2022/11/05 03:48:55;;;;;;;4.57;2.40;;;7.50;99.90;;;;;;5053590;28;20052;-66
2022/11/05 03:51:47;;;;;;;6.57;2.65;;;7.50;99.90;;;;;;5053678;28;20086;-65
2022/11/05 03:54:13;;;;;;;4.57;2.63;;;7.50;99.90;;;;;;5052920;28;20044;-65
2022/11/05 03:57:04;;;;;;;4.75;2.95;;;7.40;99.90;;;;;;5053605;28;20116;-65
2022/11/05 03:59:31;;;;;;;5.00;2.55;;;7.50;99.90;;;;;;5053100;28;20098;-65
2022/11/05 04:01:57;;;;;;;5.32;2.63;;;7.40;99.90;;;;;;5053204;28;20557;-66
2022/11/05 04:04:23;;;;;;;4.25;2.92;;;7.40;99.90;;;;;;5052825;28;20124;-65
2022/11/05 04:15:01;;;;;;;5.45;2.60;;;7.40;99.90;;;;;;5052832;28;20036;-66
2022/11/05 04:17:27;;;;;;;5.53;2.53;;;7.40;99.90;;;;;;5051915;28;20486;-66
2022/11/05 04:25:21;;;;;;;3.63;2.45;;;7.50;99.90;;;;;;5052916;28;20101;-65
2022/11/05 04:27:47;;;;;;;4.78;2.70;;;7.40;99.90;;;;;;5052652;28;20037;-66
2022/11/05 04:30:18;;;;;;;5.45;2.65;;;7.50;99.90;;;;;;5052985;28;20116;-65
2022/11/05 04:33:01;;;;;;;6.32;2.63;;;7.40;99.90;;;;;;5051440;28;20485;-66
2022/11/05 04:35:36;;;;;;;4.15;2.78;;;7.40;99.90;;;;;;5051461;28;20493;-66
2022/11/05 04:38:09;;;;;;;7.57;3.05;;;7.40;99.90;;;;;;5052525;28;20528;-65
2022/11/05 04:40:35;;;;;;;5.75;3.03;;;7.40;99.90;;;;;;5052562;28;20037;-65
2022/11/05 04:43:01;;;;;;;6.35;2.85;;;7.40;99.90;;;;;;5051994;28;20129;-65
2022/11/05 04:45:30;;;;;;;5.53;2.50;;;7.40;99.90;;;;;;5052148;28;20115;-66
2022/11/05 04:47:55;;;;;;;6.53;3.47;;;7.40;99.90;;;;;;5052639;28;20044;-66
2022/11/05 04:50:21;;;;;;;3.75;2.40;;;7.30;99.90;;;;;;5052253;28;20041;-65
2022/11/05 04:52:47;;;;;;;3.60;2.88;;;7.40;99.90;;;;;;5052177;28;20536;-65
2022/11/05 04:55:12;;;;;;;6.07;2.72;;;7.30;99.90;;;;;;5051900;28;20120;-66
2022/11/05 04:57:38;;;;;;;5.35;3.03;;;7.30;99.90;;;;;;5052403;28;20044;-65
2022/11/05 05:00:06;;;;;;;7.53;2.90;;;7.30;99.90;;;;;;5051968;28;20036;-66
2022/11/05 05:02:31;;;;;;;3.58;2.55;;;7.30;99.90;;;;;;5052491;28;20044;-65
2022/11/05 05:04:57;;;;;;;8.88;3.67;;;7.30;99.90;;;;;;5052118;28;20048;-66
2022/11/05 05:07:23;;;;;;;6.78;3.00;;;7.20;99.90;;;;;;5052083;28;20508;-66
2022/11/05 05:09:48;;;;;;;6.68;3.05;;;7.20;99.90;;;;;;5051082;28;20041;-65
2022/11/05 05:12:14;;;;;;;3.97;2.97;;;7.20;99.90;;;;;;5052107;28;20408;-66
2022/11/05 05:14:39;;;;;;;4.32;2.85;;;7.10;99.90;;;;;;5051825;28;20045;-66
2022/11/05 05:17:05;;;;;;;6.05;3.22;;;7.20;99.90;;;;;;5052099;28;20128;-66
2022/11/05 05:21:37;;;;;;;3.05;2.30;;;7.20;99.90;;;;;;5051957;28;20037;-65
2022/11/05 05:22:16;;;;;;;6.07;2.53;;;7.20;99.90;;;;;;5051658;28;20045;-66
2022/11/05 05:24:42;;;;;;;4.35;2.75;;;7.20;99.90;;;;;;5051799;28;20397;-66
2022/11/05 05:27:08;;;;;;;7.70;3.00;;;7.20;99.90;;;;;;5051351;28;20041;-66
2022/11/05 05:29:33;;;;;;;6.95;3.58;;;7.20;99.90;;;;;;5050597;28;20040;-66
2022/11/05 05:31:59;;;;;;;7.88;2.70;;;7.20;99.90;;;;;;5051591;28;20061;-66
2022/11/05 05:34:24;;;;;;;5.80;3.47;;;7.10;99.90;;;;;;5051438;28;20067;-65
2022/11/05 05:36:50;;;;;;;3.90;3.30;;;7.10;99.90;;;;;;5051832;28;20378;-65
2022/11/05 05:39:15;;;;;;;5.18;2.83;;;7.10;99.90;;;;;;5051296;28;20041;-65
2022/11/05 05:41:41;;;;;;;10.02;2.80;;;7.00;99.90;;;;;;5051461;28;20067;-66
2022/11/05 05:44:07;;;;;;;6.10;2.88;;;7.00;99.90;;;;;;5051066;28;20529;-66
2022/11/05 05:46:32;;;;;;;7.13;2.90;;;7.10;99.90;;;;;;5051439;28;20041;-66
2022/11/05 05:48:58;;;;;;;7.13;3.35;;;7.10;99.90;;;;;;5051033;28;20052;-66
2022/11/05 05:51:24;;;;;;;5.88;3.00;;;7.00;99.90;;;;;;5051421;28;20040;-66
2022/11/05 05:53:49;;;;;;;6.85;3.28;;;7.10;99.90;;;;;;5051022;28;20048;-66
2022/11/05 05:56:18;;;;;;;7.55;3.00;;;7.00;99.90;;;;;;5049984;28;20095;-65
2022/11/05 05:58:43;;;;;;;3.10;2.75;;;7.00;99.90;;;;;;5050994;28;20168;-65
2022/11/05 06:01:11;;;;;;;6.13;3.35;;;6.90;99.90;;;;;;5050966;28;20041;-65
2022/11/05 06:03:37;;;;;;;8.13;3.08;;;7.00;99.90;;;;;;5050974;28;20037;-66
2022/11/05 06:06:14;;;;;;;3.33;2.72;;;7.00;99.90;;;;;;5050857;28;20033;-66
2022/11/05 06:08:40;;;;;;;6.47;3.28;;;7.00;99.90;;;;;;5051095;28;20037;-65
2022/11/05 06:11:07;;;;;;;5.53;3.40;;;7.00;99.90;;;;;;5050836;28;20124;-65
2022/11/05 06:13:32;;;;;;;3.83;2.92;;;6.90;99.90;;;;;;5051160;28;20041;-66
2022/11/05 06:16:06;;;;;;;5.53;3.53;;;6.90;99.90;;;;;;5050630;28;20612;-66
2022/11/05 06:18:33;;;;;;;7.53;2.75;;;6.90;99.90;;;;;;5050968;28;20041;-66
2022/11/05 06:21:03;;;;;;;6.28;2.97;;;6.90;99.90;;;;;;5050920;28;20428;-65
2022/11/05 06:23:30;;;;;;;8.45;3.50;;;6.90;99.90;;;;;;5050897;28;20047;-65
2022/11/05 06:26:02;;;;;;;5.30;3.92;;;6.90;99.90;;;;;;5050495;28;20052;-66
2022/11/05 06:28:28;;;;;;;5.37;2.63;;;6.90;99.90;;;;;;5050504;28;20402;-66
2022/11/05 06:30:54;;;;;;;5.57;3.70;;;6.80;99.90;;;;;;5048767;28;20268;-65
2022/11/05 06:33:20;;;;;;;9.25;3.40;;;6.80;99.90;;;;;;5046324;28;20045;-65
2022/11/05 06:35:45;;;;;;;4.18;3.28;;;6.70;99.90;;;;;;5048126;28;20115;-66
2022/11/05 06:38:11;;;;;;;4.82;3.22;;;6.70;99.90;;;;;;5049778;28;20044;-66
2022/11/05 06:40:37;;;;;;;9.30;3.50;;;6.70;99.90;;;;;;5050109;28;20037;-65
2022/11/05 06:43:02;;;;;;;6.95;3.40;;;6.70;99.90;;;;;;5049629;28;20033;-66
2022/11/05 06:45:28;;;;;;;7.10;3.67;;;6.60;99.90;;;;;;5050463;28;20106;-65
2022/11/05 06:47:55;;;;;;;6.68;4.00;;;6.60;99.90;;;;;;5050776;28;20042;-66
2022/11/05 06:50:20;;;;;;;7.47;3.63;;;6.70;99.90;;;;;;5050538;28;20048;-65
2022/11/05 06:53:02;;;;;;;8.23;3.47;;;6.70;99.90;;;;;;5050717;28;20063;-65
2022/11/05 06:55:29;;;;;;;5.75;3.63;;;6.60;99.90;;;;;;5049893;28;20143;-66
2022/11/05 06:57:55;;;;;;;4.40;3.50;;;6.60;99.90;;;;;;5050645;28;20067;-66
2022/11/05 07:00:21;;;;;;;6.07;3.78;;;6.70;99.90;;;;;;5050454;28;20052;-66
2022/11/05 07:02:47;;;;;;;9.93;4.65;;;6.80;99.90;;;;;;5050707;28;20045;-65
2022/11/05 07:05:14;;;;;;;7.53;3.78;;;6.80;99.90;;;;;;5051957;28;20120;-67
2022/11/05 07:07:40;;;;;;;5.82;3.95;;;6.80;99.90;;;;;;5054410;28;20407;-66
2022/11/05 07:10:10;;;;;;;9.43;4.07;;;6.80;99.90;;;;;;5052768;28;20040;-66
2022/11/05 07:12:35;;;;;;;7.80;4.00;;;6.80;99.90;;;;;;5052882;28;20045;-65
2022/11/05 07:15:04;;;;;;;6.43;3.85;;;6.80;99.90;;;;;;5053962;28;20051;-66
2022/11/05 07:17:29;;;;;;;7.32;4.47;;;6.80;99.90;;;;;;5053970;28;20098;-65
2022/11/05 07:19:55;;;;;;;6.55;3.88;;;6.80;99.90;;;;;;5054284;28;20075;-67
2022/11/05 07:22:20;;;;;;;5.20;3.90;;;6.80;99.90;;;;;;5053987;28;20052;-65
2022/11/05 07:24:48;;;;;;;12.43;4.75;;;6.90;99.90;;;;;;5052560;28;20041;-65
2022/11/05 07:27:13;;;;;;;7.47;4.45;;;6.90;99.90;;;;;;5053613;28;20036;-66
2022/11/05 07:29:39;;;;;;;7.28;4.15;;;6.90;99.90;;;;;;5054075;28;20056;-65
2022/11/05 07:32:04;;;;;;;6.05;3.95;;;6.90;99.90;;;;;;5053773;28;20037;-66
2022/11/05 07:34:30;;;;;;;7.15;3.60;;;7.00;99.90;;;;;;5053623;28;20048;-65
2022/11/05 07:36:56;;;;;;;6.22;4.13;;;7.00;99.90;;;;;;5052747;28;20517;-65
2022/11/05 07:39:21;;;;;;;6.40;3.72;;;7.00;99.90;;;;;;5053791;28;20067;-65
2022/11/05 07:41:47;;;;;;;6.93;3.88;;;7.10;99.90;;;;;;5052359;28;20489;-66
2022/11/05 07:44:13;;;;;;;5.60;4.32;;;7.10;99.90;;;;;;5053625;28;20409;-66
2022/11/05 07:46:40;;;;;;;6.30;4.20;;;7.10;99.90;;;;;;5053792;28;20567;-65
2022/11/05 07:49:06;;;;;;;5.03;3.83;;;7.20;99.90;;;;;;5053768;28;20403;-65
2022/11/05 07:51:32;;;;;;;6.78;3.72;;;7.30;99.90;;;;;;5053669;28;20036;-65
2022/11/05 07:53:58;;;;;;;8.68;4.32;;;7.30;99.90;;;;;;5053042;28;20517;-66
2022/11/05 07:56:23;;;;;;;6.15;4.70;;;7.30;99.90;;;;;;5053695;28;20063;-66
2022/11/05 07:58:49;;;;;;;7.97;3.85;;;7.30;99.90;;;;;;5053363;28;20424;-65
2022/11/05 08:01:14;;;;;;;9.73;4.10;;;7.20;99.90;;;;;;5053544;28;20581;-65
2022/11/05 08:03:40;;;;;;;8.15;4.10;;;7.30;99.90;;;;;;5053298;28;20053;-65
2022/11/05 08:06:06;;;;;;;7.18;4.50;;;7.30;99.90;;;;;;5053265;28;20045;-65
2022/11/05 08:08:31;;;;;;;7.70;4.20;;;7.30;99.90;;;;;;5053105;28;20045;-65
2022/11/05 08:11:08;;;;;;;5.60;4.05;;;7.40;99.90;;;;;;5053417;28;20041;-66
2022/11/05 08:13:34;;;;;;;6.45;4.40;;;7.50;99.90;;;;;;5053330;28;20040;-65
2022/11/05 08:16:00;;;;;;;8.93;4.50;;;7.50;99.90;;;;;;5051983;28;20097;-65
2022/11/05 08:18:30;;;;;;;9.23;4.13;;;7.50;99.90;;;;;;5053032;28;20033;-65
2022/11/05 08:20:58;;;;;;;6.20;4.38;;;7.60;99.90;;;;;;5053328;28;20047;-65
2022/11/05 08:23:24;;;;;;;7.13;4.22;;;7.70;99.90;;;;;;5053176;28;20044;-65
2022/11/05 08:25:50;;;;;;;9.07;4.57;;;7.70;99.90;;;;;;5053058;28;20049;-65
2022/11/05 08:28:16;;;;;;;5.90;4.60;;;7.70;99.90;;;;;;5052906;28;20520;-65
2022/11/05 08:30:41;;;;;;;9.50;4.80;;;7.70;99.90;;;;;;5052903;28;20041;-66
2022/11/05 08:33:10;;;;;;;10.23;4.68;;;7.80;99.90;;;;;;5051382;28;20124;-66
2022/11/05 08:35:37;;;;;;;8.77;4.53;;;7.80;99.90;;;;;;5052430;28;20095;-65
2022/11/05 08:38:04;;;;;;;4.85;4.32;;;7.80;99.90;;;;;;5052870;28;20073;-68
2022/11/05 08:40:32;;;;;;;7.45;4.05;;;7.80;99.90;;;;;;5051515;28;20053;-66
2022/11/05 08:43:01;;;;;;;8.23;4.68;;;7.90;99.90;;;;;;5051639;28;20087;-69
2022/11/05 08:45:27;;;;;;;8.15;5.13;;;7.90;99.90;;;;;;5050866;28;20052;-66
2022/11/05 08:48:00;;;;;;;5.05;3.90;;;8.00;99.90;;;;;;5052470;28;20580;-65
2022/11/05 08:50:26;;;;;;;8.98;4.25;;;7.90;99.90;;;;;;5052595;28;20037;-65
2022/11/05 08:52:51;;;;;;;8.32;4.72;;;8.00;99.90;;;;;;5052612;28;20037;-65
2022/11/05 08:55:17;;;;;;;5.90;4.30;;;8.10;99.90;;;;;;5052162;28;20124;-65
2022/11/05 08:57:45;;;;;;;6.25;4.28;;;8.10;99.90;;;;;;5052634;28;20111;-66
2022/11/05 09:00:11;;;;;;;6.38;4.30;;;8.10;99.90;;;;;;5052074;28;20045;-65
2022/11/05 09:02:37;;;;;;;4.68;3.88;;;8.20;99.90;;;;;;5050986;28;20044;-65
2022/11/05 09:05:02;;;;;;;10.40;5.03;;;8.20;99.90;;;;;;5052262;28;20041;-66
2022/11/05 09:07:28;;;;;;;8.10;4.85;;;8.30;99.90;;;;;;5052393;28;20041;-65
2022/11/05 09:09:54;;;;;;;9.85;5.25;;;8.40;99.90;;;;;;5051981;28;20051;-66
2022/11/05 09:12:19;;;;;;;5.88;3.70;;;8.40;99.90;;;;;;5051938;28;20044;-66
2022/11/05 09:14:45;;;;;;;7.35;4.40;;;8.40;99.90;;;;;;5051950;28;20036;-65
2022/11/05 09:17:19;;;;;;;6.53;4.25;;;8.40;99.90;;;;;;5051665;28;20040;-65
2022/11/05 09:19:44;;;;;;;7.30;6.05;;;8.50;99.90;;;;;;5052102;28;20041;-65
2022/11/05 09:22:11;;;;;;;12.95;4.70;;;8.60;99.90;;;;;;5051839;28;20095;-65
2022/11/05 09:24:38;;;;;;;7.00;4.65;;;8.70;99.90;;;;;;5051660;28;20041;-65
2022/11/05 09:27:04;;;;;;;9.38;4.57;;;8.70;99.90;;;;;;5051135;28;20033;-66
2022/11/05 09:29:30;;;;;;;5.93;4.20;;;8.70;99.90;;;;;;5051440;28;20296;-67
2022/11/05 09:31:55;;;;;;;7.68;4.32;;;8.80;99.90;;;;;;5050080;28;20489;-67
2022/11/05 09:34:21;;;;;;;8.48;4.53;;;8.90;99.90;;;;;;5051372;28;20043;-67
2022/11/05 09:36:46;;;;;;;7.38;4.30;;;8.90;99.90;;;;;;5051597;28;20029;-69
2022/11/05 09:39:12;;;;;;;6.40;4.38;;;9.00;99.90;;;;;;5051414;28;20036;-65
2022/11/05 09:41:39;;;;;;;6.95;4.63;;;9.10;99.90;;;;;;5051603;28;20033;-66
2022/11/05 09:44:14;;;;;;;6.63;4.82;;;9.10;99.90;;;;;;5051034;28;20086;-65
2022/11/05 09:46:45;;;;;;;5.45;4.18;;;9.10;99.90;;;;;;5050076;28;20041;-65
2022/11/05 09:49:38;;;;;;;7.68;4.40;;;9.20;99.90;;;;;;5051263;28;20041;-65
2022/11/05 09:52:10;;;;;;;6.28;4.43;;;9.20;99.90;;;;;;5051373;28;20044;-65
2022/11/05 09:54:36;;;;;;;8.77;4.05;;;9.20;99.90;;;;;;5051122;28;20048;-65
2022/11/05 09:57:04;;;;;;;12.50;4.47;;;9.20;99.90;;;;;;5051333;28;20045;-65
2022/11/05 09:59:44;;;;;;;10.93;4.50;;;9.30;99.90;;;;;;5050897;28;20073;-65
2022/11/05 10:02:24;;;;;;;5.40;4.35;;;9.40;99.90;;;;;;5051107;28;20172;-66
2022/11/05 10:04:54;;;;;;;6.00;4.22;;;9.40;99.90;;;;;;5050252;28;20040;-66
2022/11/05 10:07:24;;;;;;;6.03;4.20;;;9.50;99.90;;;;;;5047527;28;20612;-66
2022/11/05 10:09:58;;;;;;;12.02;4.28;;;9.50;99.90;;;;;;5050662;28;20079;-66
2022/11/05 10:12:45;;;;;;;6.30;4.43;;;9.50;99.90;;;;;;5050968;28;20091;-65
2022/11/05 10:15:20;;;;;;;7.30;4.10;;;9.60;99.90;;;;;;5050275;28;20037;-66
2022/11/05 10:17:52;;;;;;;5.00;4.30;;;9.60;99.90;;;;;;5051067;28;20737;-66
2022/11/05 10:20:23;;;;;;;12.50;5.55;;;9.60;99.90;;;;;;5049165;28;20071;-66
2022/11/05 10:22:55;;;;;;;9.32;4.10;;;9.70;99.90;;;;;;5050161;28;20041;-66
2022/11/05 10:25:23;;;;;;;6.70;3.80;;;9.70;99.90;;;;;;5050101;28;20041;-66
2022/11/05 10:27:54;;;;;;;6.10;3.47;;;9.70;99.90;;;;;;5050672;28;20151;-65
2022/11/05 10:30:20;;;;;;;6.05;4.00;;;9.80;99.90;;;;;;5050952;28;20059;-66
2022/11/05 10:32:47;;;;;;;7.95;3.53;;;9.80;99.90;;;;;;5050567;28;20128;-68
2022/11/05 10:35:21;;;;;;;9.07;4.30;;;9.90;99.90;;;;;;5050467;28;20040;-68
2022/11/05 10:37:48;;;;;;;5.78;4.03;;;9.90;99.90;;;;;;5050910;28;20497;-66
2022/11/05 10:40:32;;;;;;;6.03;4.32;;;10.10;99.90;;;;;;5050039;28;20037;-66
2022/11/05 10:43:05;;;;;;;6.63;4.15;;;10.10;99.90;;;;;;5049183;28;20044;-66
2022/11/05 10:45:47;;;;;;;5.90;3.97;;;10.10;99.90;;;;;;5050473;28;20133;-66
2022/11/05 10:48:46;;;;;;;11.75;4.30;;;10.10;99.90;;;;;;5050805;28;20045;-66
2022/11/05 10:51:13;;;;;;;7.68;4.03;;;10.20;99.90;;;;;;5050688;28;20056;-66
2022/11/05 10:53:52;;;;;;;7.25;3.70;;;10.20;99.90;;;;;;5050541;28;20118;-66
2022/11/05 10:56:33;;;;;;;4.40;3.67;;;10.20;99.90;;;;;;5050417;28;20099;-66
2022/11/05 10:59:00;;;;;;;5.00;3.63;;;10.20;99.90;;;;;;5050033;28;20037;-66
2022/11/05 11:01:27;;;;;;;6.38;3.85;;;10.20;99.90;;;;;;5049926;28;20060;-66
2022/11/05 11:04:24;;;;;;;7.82;3.80;;;10.30;99.90;;;;;;5049865;28;20083;-66
2022/11/05 11:06:53;;;;;;;7.38;4.30;;;10.30;99.90;;;;;;5050036;28;20053;-66
2022/11/05 11:09:29;;;;;;;9.13;3.88;;;10.30;99.90;;;;;;5049207;28;20060;-66
2022/11/05 11:12:10;;;;;;;9.48;4.45;;;10.40;99.90;;;;;;5050088;28;20055;-66
2022/11/05 11:14:36;;;;;;;9.18;5.60;;;10.40;99.90;;;;;;5050090;28;20512;-66
2022/11/05 11:17:26;;;;;;;4.22;3.40;;;10.40;99.90;;;;;;5050443;28;20041;-66
2022/11/05 11:20:19;;;;;;;5.75;3.42;;;10.40;99.90;;;;;;5050288;28;20489;-66
2022/11/05 11:23:12;;;;;;;7.50;4.05;;;10.40;99.90;;;;;;5050480;28;20052;-66
2022/11/05 11:26:01;;;;;;;10.05;3.63;;;10.50;99.90;;;;;;5050283;28;20048;-66
2022/11/05 11:28:50;;;;;;;4.47;3.47;;;10.50;99.90;;;;;;5050203;28;20123;-66
2022/11/05 11:31:22;;;;;;;4.85;3.60;;;10.50;99.90;;;;;;5049429;28;20041;-66
2022/11/05 11:33:58;;;;;;;7.82;3.28;;;10.60;99.90;;;;;;5048535;28;20095;-66
2022/11/05 11:36:32;;;;;;;4.00;3.60;;;10.60;99.90;;;;;;5050473;28;20043;-66
2022/11/05 11:38:59;;;;;;;12.30;4.07;;;10.60;99.90;;;;;;5050110;28;20087;-66
2022/11/05 11:41:30;;;;;;;5.43;3.65;;;10.80;99.90;;;;;;5050338;28;20098;-66
2022/11/05 11:44:01;;;;;;;5.30;3.70;;;10.80;99.90;;;;;;5048187;28;20052;-69
2022/11/05 11:46:31;;;;;;;6.22;3.75;;;11.20;99.90;;;;;;5050441;28;20037;-68
2022/11/05 11:48:57;;;;;;;4.38;3.10;;;11.20;99.90;;;;;;5031878;28;20048;-65
2022/11/05 11:51:43;;;;;;;7.20;3.70;;;11.20;99.90;;;;;;5051562;28;20080;-65
2022/11/05 11:54:20;;;;;;;6.07;3.42;;;11.20;99.90;;;;;;5052199;28;20041;-65
2022/11/05 11:56:47;;;;;;;7.00;3.85;;;11.20;99.90;;;;;;5053417;28;20568;-66
2022/11/05 11:59:25;;;;;;;6.00;3.53;;;11.20;99.90;;;;;;5052198;28;20080;-66
2022/11/05 12:02:24;;;;;;;5.88;3.60;;;11.30;99.90;;;;;;5050739;28;20080;-66
2022/11/05 12:05:15;;;;;;;7.43;3.33;;;11.30;99.90;;;;;;5051369;28;20122;-66
2022/11/05 12:07:51;;;;;;;8.23;4.13;;;11.30;99.90;;;;;;5052590;28;20052;-66
2022/11/05 12:10:24;;;;;;;8.85;3.75;;;11.40;99.90;;;;;;5052714;28;20081;-65
2022/11/05 12:13:06;;;;;;;6.38;3.72;;;11.40;99.90;;;;;;5051235;28;20152;-65
2022/11/05 12:16:03;;;;;;;5.43;4.10;;;11.40;99.90;;;;;;5049442;28;20510;-66
2022/11/05 12:19:03;;;;;;;9.45;3.60;;;11.50;99.90;;;;;;5050751;28;20120;-66
2022/11/05 12:21:34;;;;;;;5.85;3.60;;;11.50;99.90;;;;;;5050626;28;20051;-66
2022/11/05 12:24:25;;;;;;;7.43;4.40;;;11.50;99.90;;;;;;5052611;28;20060;-66
2022/11/05 12:27:29;;;;;;;6.40;3.85;;;11.50;99.90;;;;;;5052977;28;20041;-65
2022/11/05 12:30:11;;;;;;;9.88;3.90;;;11.40;99.90;;;;;;5050809;28;20709;-69
2022/11/05 12:32:59;;;;;;;7.67;3.60;;;11.50;99.90;;;;;;5051504;28;20037;-70
2022/11/05 12:35:43;;;;;;;7.53;3.95;;;11.50;99.90;;;;;;5052544;28;20268;-69
2022/11/05 12:38:14;;;;;;;6.28;3.55;;;11.50;99.90;;;;;;5052739;28;20562;-69
2022/11/05 12:41:17;;;;;;;7.68;4.03;;;11.50;99.90;;;;;;5051251;28;20051;-70
2022/11/05 12:44:19;;;;;;;9.85;4.13;;;11.60;99.90;;;;;;5051276;28;20421;-70
2022/11/05 12:47:22;;;;;;;5.13;3.85;;;11.50;99.90;;;;;;5052572;28;20037;-70
2022/11/05 12:50:25;;;;;;;7.80;4.13;;;11.50;99.90;;;;;;5052408;28;20386;-66
2022/11/05 12:52:56;;;;;;;10.50;3.97;;;11.60;99.90;;;;;;5052339;28;20489;-67
2022/11/05 12:55:30;;;;;;;6.72;4.03;;;11.60;99.90;;;;;;5052413;28;20037;-67
2022/11/05 12:58:07;;;;;;;6.82;3.60;;;11.60;99.90;;;;;;5052151;28;20057;-66
2022/11/05 13:00:35;;;;;;;8.32;3.38;;;11.60;99.90;;;;;;5052553;28;20037;-66
2022/11/05 13:03:41;;;;;;;6.85;3.95;;;11.60;99.90;;;;;;5051519;28;20049;-67
2022/11/05 13:06:12;;;;;;;3.92;3.25;;;11.60;99.90;;;;;;5051063;28;20045;-66
2022/11/05 13:08:41;;;;;;;10.15;3.50;;;11.60;99.90;;;;;;5052297;28;20037;-66
2022/11/05 13:11:39;;;;;;;5.70;3.38;;;11.70;99.90;;;;;;5052209;28;20047;-66
2022/11/05 13:14:20;;;;;;;7.70;3.28;;;11.70;99.90;;;;;;5049019;28;20110;-66
2022/11/05 13:16:52;;;;;;;6.18;3.70;;;11.70;99.90;;;;;;5051827;28;20708;-66
2022/11/05 13:19:17;;;;;;;5.03;3.50;;;11.60;99.90;;;;;;5052030;28;20079;-66
2022/11/05 13:21:46;;;;;;;8.38;4.55;;;11.60;99.90;;;;;;5050945;28;20079;-67
2022/11/05 13:24:32;;;;;;;5.20;3.70;;;11.70;99.90;;;;;;5051536;28;20044;-67
2022/11/05 13:27:11;;;;;;;7.55;4.35;;;11.70;99.90;;;;;;5052111;28;20116;-66
2022/11/05 13:29:51;;;;;;;6.22;3.45;;;11.60;99.90;;;;;;5051583;28;20115;-68
2022/11/05 13:32:23;;;;;;;6.60;4.22;;;11.60;99.90;;;;;;5050635;28;20413;-66
2022/11/05 13:34:56;;;;;;;8.75;3.78;;;11.60;99.90;;;;;;5051603;28;20052;-67
2022/11/05 13:40:14;;;;;;;9.38;4.88;;;11.60;99.90;;;;;;5051727;28;20088;-66
2022/11/05 13:43:18;;;;;;;8.23;4.97;;;11.60;99.90;;;;;;5050018;28;20060;-66
2022/11/05 13:46:02;;;;;;;7.75;4.38;;;11.50;99.90;;;;;;5051158;28;20090;-66
2022/11/05 13:48:45;;;;;;;8.82;3.88;;;11.50;99.90;;;;;;5051558;28;20048;-65
2022/11/05 13:51:47;;;;;;;10.73;4.13;;;11.50;99.90;;;;;;5051361;28;20060;-65
2022/11/05 13:55:06;;;;;;;9.55;4.40;;;11.50;99.90;;;;;;5050965;28;20045;-66
2022/11/05 13:58:07;;;;;;;9.18;3.90;;;11.50;99.90;;;;;;5048657;28;20044;-66
2022/11/05 14:00:44;;;;;;;7.70;4.38;;;11.50;99.90;;;;;;5042113;28;20508;-66
2022/11/05 14:03:18;;;;;;;8.35;4.20;;;11.50;99.90;;;;;;5051351;28;20078;-66